createdAt,value
2019-04-21T00:00:20.691Z,11.76
2019-04-21T00:01:18.374Z,11.70
2019-04-21T00:02:24.253Z,11.69
2019-04-21T00:03:25.816Z,11.69
2019-04-21T00:04:34.620Z,11.67
2019-04-21T00:05:38.542Z,11.70
2019-04-21T00:06:40.814Z,11.64
2019-04-21T00:07:37.814Z,11.65
2019-04-21T00:08:58.754Z,11.64
2019-04-21T00:09:42.397Z,11.55
2019-04-21T00:10:40.637Z,11.61
2019-04-21T00:11:41.487Z,11.49
2019-04-21T00:12:35.654Z,11.52
2019-04-21T00:13:36.812Z,11.61
2019-04-21T00:14:31.237Z,11.55
2019-04-21T00:15:27.752Z,11.52
2019-04-21T00:16:24.591Z,11.58
2019-04-21T00:17:21.662Z,11.62
2019-04-21T00:18:19.085Z,11.55
2019-04-21T00:19:20.836Z,11.54
2019-04-21T00:20:27.360Z,11.46
2019-04-21T00:21:30.205Z,11.51
2019-04-21T00:22:31.456Z,11.49
2019-04-21T00:23:39.555Z,11.42
2019-04-21T00:24:37.487Z,11.46
2019-04-21T00:25:36.229Z,11.40
2019-04-21T00:26:37.647Z,11.39
2019-04-21T00:27:34.035Z,11.32
2019-04-21T00:28:42.494Z,11.40
2019-04-21T00:29:45.618Z,11.32
2019-04-21T00:30:39.898Z,11.32
2019-04-21T00:31:33.950Z,11.33
2019-04-21T00:32:33.433Z,11.33
2019-04-21T00:33:25.877Z,11.27
2019-04-21T00:34:19.634Z,11.28
2019-04-21T00:35:21.244Z,11.19
2019-04-21T00:36:24.204Z,11.24
2019-04-21T00:37:31.962Z,11.14
2019-04-21T00:38:57.470Z,11.11
2019-04-21T00:39:54.037Z,11.21
2019-04-21T00:40:41.422Z,11.18
2019-04-21T00:41:38.373Z,11.22
2019-04-21T00:42:41.550Z,11.14
2019-04-21T00:43:32.934Z,11.10
2019-04-21T00:44:29.860Z,11.07
2019-04-21T00:45:34.927Z,11.09
2019-04-21T00:46:35.119Z,11.07
2019-04-21T00:47:44.277Z,11.09
2019-04-21T00:48:44.695Z,11.07
2019-04-21T00:49:34.314Z,11.07
2019-04-21T00:50:51.265Z,11.00
2019-04-21T00:51:49.870Z,11.06
2019-04-21T00:52:52.469Z,11.14
2019-04-21T00:53:44.721Z,11.03
2019-04-21T00:54:49.771Z,10.99
2019-04-21T00:55:44.385Z,10.97
2019-04-21T00:56:41.194Z,10.96
2019-04-21T00:57:45.740Z,10.92
2019-04-21T00:58:43.812Z,11.03
2019-04-21T00:59:43.288Z,10.96
2019-04-21T01:00:42.236Z,11.00
2019-04-21T01:01:42.486Z,11.06
2019-04-21T01:02:46.867Z,11.03
2019-04-21T01:03:40.122Z,10.97
2019-04-21T01:04:45.620Z,11.06
2019-04-21T01:05:41.099Z,11.04
2019-04-21T01:06:45.011Z,10.94
2019-04-21T01:07:41.999Z,10.92
2019-04-21T01:08:35.982Z,10.91
2019-04-21T01:09:32.720Z,10.85
2019-04-21T01:10:32.014Z,10.91
2019-04-21T01:11:47.374Z,10.91
2019-04-21T01:12:41.803Z,10.86
2019-04-21T01:13:44.042Z,10.86
2019-04-21T01:14:43.223Z,10.84
2019-04-21T01:15:47.472Z,10.89
2019-04-21T01:16:40.934Z,10.88
2019-04-21T01:17:44.782Z,10.81
2019-04-21T01:18:38.013Z,10.79
2019-04-21T01:19:38.595Z,10.84
2019-04-21T01:20:18.399Z,10.71
2019-04-21T01:21:17.020Z,10.84
2019-04-21T01:22:17.018Z,10.74
2019-04-21T01:23:17.004Z,10.76
2019-04-21T01:24:24.575Z,10.76
2019-04-21T01:25:27.438Z,10.70
2019-04-21T01:26:29.599Z,10.76
2019-04-21T01:27:31.952Z,10.71
2019-04-21T01:28:36.546Z,10.78
2019-04-21T01:29:41.560Z,10.73
2019-04-21T01:30:41.498Z,10.67
2019-04-21T01:31:36.627Z,10.61
2019-04-21T01:32:47.352Z,10.61
2019-04-21T01:33:39.234Z,10.60
2019-04-21T01:34:39.347Z,10.56
2019-04-21T01:35:40.286Z,10.53
2019-04-21T01:36:34.719Z,10.52
2019-04-21T01:37:44.911Z,10.52
2019-04-21T01:38:40.103Z,10.59
2019-04-21T01:39:42.675Z,10.48
2019-04-21T01:40:43.319Z,10.53
2019-04-21T01:41:38.926Z,10.44
2019-04-21T01:42:43.158Z,10.40
2019-04-21T01:43:34.955Z,10.41
2019-04-21T01:44:41.642Z,10.44
2019-04-21T01:45:37.664Z,10.30
2019-04-21T01:46:33.654Z,10.32
2019-04-21T01:47:36.130Z,10.29
2019-04-21T01:48:34.239Z,10.30
2019-04-21T01:49:33.362Z,10.27
2019-04-21T01:50:36.341Z,10.29
2019-04-21T01:51:37.062Z,10.32
2019-04-21T01:52:47.344Z,10.27
2019-04-21T01:53:42.408Z,10.23
2019-04-21T01:54:44.977Z,10.18
2019-04-21T01:55:35.711Z,10.29
2019-04-21T01:56:40.142Z,10.17
2019-04-21T01:58:28.862Z,10.23
2019-04-21T01:59:33.438Z,10.14
2019-04-21T02:00:36.025Z,10.23
2019-04-21T02:01:48.494Z,10.23
2019-04-21T02:02:36.008Z,10.20
2019-04-21T02:04:45.352Z,10.20
2019-04-21T02:05:46.712Z,10.20
2019-04-21T02:06:41.309Z,10.15
2019-04-21T02:07:40.633Z,10.23
2019-04-21T02:08:36.135Z,10.18
2019-04-21T02:09:38.209Z,10.18
2019-04-21T02:10:39.970Z,10.11
2019-04-21T02:11:43.411Z,10.11
2019-04-21T02:12:42.756Z,10.11
2019-04-21T02:13:48.872Z,10.15
2019-04-21T02:14:45.679Z,10.12
2019-04-21T02:15:46.768Z,10.07
2019-04-21T02:16:42.241Z,10.04
2019-04-21T02:17:38.826Z,10.08
2019-04-21T02:18:42.477Z,10.05
2019-04-21T02:19:31.615Z,10.08
2019-04-21T02:20:29.149Z,10.09
2019-04-21T02:21:31.792Z,10.04
2019-04-21T02:22:57.484Z,10.07
2019-04-21T02:24:45.154Z,10.05
2019-04-21T02:25:38.614Z,10.08
2019-04-21T02:26:41.470Z,9.94
2019-04-21T02:27:36.244Z,9.99
2019-04-21T02:28:50.224Z,10.01
2019-04-21T02:29:43.824Z,9.99
2019-04-21T02:31:44.713Z,9.99
2019-04-21T02:32:47.970Z,9.96
2019-04-21T02:33:57.489Z,9.90
2019-04-21T02:34:52.294Z,9.94
2019-04-21T02:36:44.839Z,9.89
2019-04-21T02:37:54.960Z,9.79
2019-04-21T02:39:49.785Z,9.71
2019-04-21T02:41:51.219Z,9.79
2019-04-21T02:43:07.452Z,9.78
2019-04-21T02:43:52.135Z,9.72
2019-04-21T02:44:52.098Z,9.75
2019-04-21T02:45:47.078Z,9.76
2019-04-21T02:46:42.021Z,9.76
2019-04-21T02:49:53.573Z,9.76
2019-04-21T02:52:53.871Z,9.74
2019-04-21T02:55:02.366Z,9.71
2019-04-21T02:55:44.195Z,9.69
2019-04-21T02:56:53.408Z,9.66
2019-04-21T02:57:49.436Z,9.69
2019-04-21T02:58:56.994Z,9.69
2019-04-21T02:59:53.502Z,9.54
2019-04-21T03:00:44.918Z,9.58
2019-04-21T03:02:51.721Z,9.51
2019-04-21T03:03:54.465Z,9.58
2019-04-21T03:06:51.988Z,9.51
2019-04-21T03:08:50.516Z,9.47
2019-04-21T03:09:59.115Z,9.39
2019-04-21T03:11:48.228Z,9.35
2019-04-21T03:12:46.003Z,9.26
2019-04-21T03:13:50.651Z,9.29
2019-04-21T03:15:02.485Z,9.29
2019-04-21T03:15:47.419Z,9.31
2019-04-21T03:16:47.213Z,9.33
2019-04-21T03:17:48.836Z,9.35
2019-04-21T03:19:54.083Z,9.21
2019-04-21T03:20:54.929Z,9.29
2019-04-21T03:21:48.966Z,9.17
2019-04-21T03:23:53.582Z,9.13
2019-04-21T03:25:50.203Z,9.18
2019-04-21T03:35:15.294Z,9.13
2019-04-21T03:36:12.845Z,9.18
2019-04-21T03:37:47.737Z,9.14
2019-04-21T03:38:41.049Z,9.13
2019-04-21T03:39:50.730Z,9.15
2019-04-21T03:40:39.941Z,9.13
2019-04-21T03:42:00.279Z,9.13
2019-04-21T03:44:48.269Z,9.14
2019-04-21T03:45:44.502Z,9.14
2019-04-21T03:46:52.609Z,9.10
2019-04-21T03:47:50.118Z,9.13
2019-04-21T03:50:47.248Z,9.10
2019-04-21T03:51:47.876Z,9.10
2019-04-21T03:54:53.879Z,9.10
2019-04-21T03:55:53.382Z,8.98
2019-04-21T03:56:59.425Z,8.98
2019-04-21T03:59:48.308Z,8.98
2019-04-21T04:01:51.044Z,8.98
2019-04-21T04:02:55.733Z,8.92
2019-04-21T04:04:45.677Z,8.95
2019-04-21T04:06:02.039Z,8.91
2019-04-21T04:09:06.480Z,8.94
2019-04-21T04:10:50.325Z,8.91
2019-04-21T04:11:50.537Z,8.80
2019-04-21T04:17:40.803Z,8.83
2019-04-21T04:19:44.707Z,8.83
2019-04-21T04:20:45.324Z,8.83
2019-04-21T04:22:04.338Z,8.74
2019-04-21T04:22:52.580Z,8.73
2019-04-21T04:24:50.215Z,8.87
2019-04-21T04:25:53.665Z,8.79
2019-04-21T04:28:00.131Z,8.77
2019-04-21T04:29:01.351Z,8.77
2019-04-21T04:30:45.288Z,8.79
2019-04-21T04:32:42.487Z,8.70
2019-04-21T04:34:10.554Z,8.79
2019-04-21T04:34:47.340Z,8.86
2019-04-21T04:36:58.423Z,8.80
2019-04-21T04:39:51.679Z,8.86
2019-04-21T04:40:46.930Z,8.92
2019-04-21T04:41:54.757Z,8.86
2019-04-21T04:44:03.290Z,8.89
2019-04-21T04:47:53.204Z,8.94
2019-04-21T04:48:55.335Z,9.02
2019-04-21T04:50:49.286Z,9.10
2019-04-21T04:51:58.774Z,8.98
2019-04-21T04:53:48.863Z,9.08
2019-04-21T04:54:55.740Z,9.15
2019-04-21T04:56:48.133Z,9.17
2019-04-21T04:57:57.222Z,9.23
2019-04-21T04:59:20.359Z,9.13
2019-04-21T05:00:42.750Z,9.29
2019-04-21T05:01:53.247Z,9.24
2019-04-21T05:02:40.244Z,9.26
2019-04-21T05:03:48.908Z,9.15
2019-04-21T05:05:48.994Z,9.28
2019-04-21T05:07:52.299Z,9.24
2019-04-21T05:09:47.085Z,9.36
2019-04-21T05:12:44.332Z,9.36
2019-04-21T05:13:51.148Z,9.39
2019-04-21T05:14:46.636Z,9.39
2019-04-21T05:15:42.127Z,9.36
2019-04-21T05:16:46.873Z,9.33
2019-04-21T05:17:49.164Z,9.43
2019-04-21T05:18:56.009Z,9.46
2019-04-21T05:19:53.853Z,9.48
2019-04-21T05:20:50.248Z,9.51
2019-04-21T05:21:40.482Z,9.48
2019-04-21T05:22:48.001Z,9.48
2019-04-21T05:23:38.811Z,9.54
2019-04-21T05:24:33.735Z,9.60
2019-04-21T05:25:33.856Z,9.53
2019-04-21T05:26:35.323Z,9.60
2019-04-21T05:27:29.610Z,9.56
2019-04-21T05:28:31.718Z,9.57
2019-04-21T05:29:29.643Z,9.61
2019-04-21T05:30:41.927Z,9.65
2019-04-21T05:31:38.834Z,9.75
2019-04-21T05:32:40.286Z,9.69
2019-04-21T05:33:38.070Z,9.78
2019-04-21T05:34:42.651Z,9.81
2019-04-21T05:35:32.208Z,9.69
2019-04-21T05:36:38.186Z,9.72
2019-04-21T05:37:35.075Z,9.78
2019-04-21T05:38:34.699Z,9.83
2019-04-21T05:39:33.574Z,9.78
2019-04-21T05:40:29.096Z,9.91
2019-04-21T05:41:26.662Z,9.94
2019-04-21T05:42:30.300Z,9.93
2019-04-21T05:43:43.773Z,9.96
2019-04-21T05:44:44.459Z,10.02
2019-04-21T05:45:56.764Z,10.05
2019-04-21T05:46:41.688Z,10.14
2019-04-21T05:47:41.634Z,10.12
2019-04-21T05:49:34.091Z,10.27
2019-04-21T05:50:32.100Z,10.36
2019-04-21T05:51:34.242Z,10.48
2019-04-21T05:52:26.439Z,10.61
2019-04-21T05:53:35.959Z,10.71
2019-04-21T05:54:44.298Z,10.74
2019-04-21T05:56:36.588Z,10.74
2019-04-21T05:57:39.503Z,10.79
2019-04-21T05:58:37.776Z,10.84
2019-04-21T05:59:40.375Z,10.79
2019-04-21T06:00:59.699Z,10.84
2019-04-21T06:01:44.585Z,10.91
2019-04-21T06:02:35.514Z,10.89
2019-04-21T06:03:44.530Z,10.99
2019-04-21T06:05:02.191Z,10.97
2019-04-21T06:05:47.399Z,11.09
2019-04-21T06:06:40.956Z,11.07
2019-04-21T06:07:38.261Z,11.14
2019-04-21T06:08:37.230Z,11.14
2019-04-21T06:09:49.550Z,11.19
2019-04-21T06:10:43.460Z,11.22
2019-04-21T06:11:36.588Z,11.35
2019-04-21T06:12:41.403Z,11.32
2019-04-21T06:13:43.432Z,11.44
2019-04-21T06:14:43.956Z,11.40
2019-04-21T06:15:47.162Z,11.51
2019-04-21T06:16:43.900Z,11.49
2019-04-21T06:18:44.822Z,11.64
2019-04-21T06:19:45.082Z,11.69
2019-04-21T06:20:40.720Z,11.69
2019-04-21T06:21:33.248Z,11.73
2019-04-21T06:22:44.901Z,11.85
2019-04-21T06:23:36.014Z,11.91
2019-04-21T06:24:52.283Z,11.82
2019-04-21T06:25:48.927Z,11.91
2019-04-21T06:27:51.579Z,12.10
2019-04-21T06:28:40.184Z,12.16
2019-04-21T06:29:38.049Z,12.12
2019-04-21T06:30:42.580Z,12.20
2019-04-21T06:32:08.842Z,12.29
2019-04-21T06:32:46.860Z,12.32
2019-04-21T06:33:41.696Z,12.47
2019-04-21T06:34:49.264Z,12.53
2019-04-21T06:35:48.391Z,12.49
2019-04-21T06:37:44.579Z,12.64
2019-04-21T06:38:45.677Z,12.71
2019-04-21T06:40:43.174Z,12.79
2019-04-21T06:41:34.403Z,12.77
2019-04-21T06:42:43.246Z,12.89
2019-04-21T06:43:40.391Z,12.93
2019-04-21T06:44:38.883Z,13.04
2019-04-21T06:45:40.145Z,13.08
2019-04-21T06:46:43.713Z,13.11
2019-04-21T06:48:40.587Z,13.30
2019-04-21T06:49:30.211Z,13.32
2019-04-21T06:50:41.173Z,13.38
2019-04-21T06:51:42.384Z,13.41
2019-04-21T06:53:44.880Z,13.54
2019-04-21T06:54:45.431Z,13.64
2019-04-21T06:55:34.111Z,13.69
2019-04-21T06:57:41.821Z,13.91
2019-04-21T06:58:35.868Z,13.92
2019-04-21T06:59:34.317Z,14.03
2019-04-21T07:00:37.309Z,14.17
2019-04-21T07:01:43.822Z,14.04
2019-04-21T07:02:50.708Z,14.15
2019-04-21T07:03:44.034Z,14.25
2019-04-21T07:04:36.979Z,14.32
2019-04-21T07:05:40.945Z,14.36
2019-04-21T07:06:45.630Z,14.46
2019-04-21T07:07:36.210Z,14.52
2019-04-21T07:08:45.033Z,14.52
2019-04-21T07:09:38.003Z,14.61
2019-04-21T07:10:37.142Z,14.58
2019-04-21T07:11:33.699Z,14.65
2019-04-21T07:12:33.856Z,14.78
2019-04-21T07:13:34.762Z,14.75
2019-04-21T07:14:32.025Z,14.80
2019-04-21T07:15:37.010Z,14.83
2019-04-21T07:16:38.720Z,14.84
2019-04-21T07:17:36.905Z,14.91
2019-04-21T07:18:41.487Z,14.95
2019-04-21T07:19:44.175Z,15.02
2019-04-21T07:20:36.702Z,15.11
2019-04-21T07:21:43.424Z,15.13
2019-04-21T07:22:40.232Z,15.14
2019-04-21T07:23:38.652Z,15.19
2019-04-21T07:24:41.765Z,15.28
2019-04-21T07:25:40.796Z,15.36
2019-04-21T07:26:36.302Z,15.38
2019-04-21T07:27:35.324Z,15.32
2019-04-21T07:28:46.103Z,15.50
2019-04-21T07:29:41.369Z,15.50
2019-04-21T07:31:40.203Z,15.59
2019-04-21T07:32:36.358Z,15.65
2019-04-21T07:34:56.120Z,15.74
2019-04-21T07:35:51.115Z,15.82
2019-04-21T07:36:46.384Z,15.87
2019-04-21T07:37:38.091Z,15.84
2019-04-21T07:38:36.275Z,16.00
2019-04-21T07:39:32.606Z,16.01
2019-04-21T07:40:27.693Z,16.01
2019-04-21T07:41:25.041Z,16.11
2019-04-21T07:42:34.754Z,16.04
2019-04-21T07:43:32.918Z,16.07
2019-04-21T07:44:31.837Z,16.25
2019-04-21T07:45:30.188Z,16.17
2019-04-21T07:46:26.357Z,16.33
2019-04-21T07:47:37.002Z,16.34
2019-04-21T07:48:33.705Z,16.34
2019-04-21T07:49:33.493Z,16.35
2019-04-21T07:50:31.835Z,16.33
2019-04-21T07:51:37.781Z,16.38
2019-04-21T07:52:39.563Z,16.41
2019-04-21T07:53:48.217Z,16.49
2019-04-21T07:54:38.526Z,16.45
2019-04-21T07:56:20.319Z,16.58
2019-04-21T07:57:39.426Z,16.61
2019-04-21T07:58:38.755Z,16.71
2019-04-21T07:59:48.472Z,16.88
2019-04-21T08:00:40.796Z,16.88
2019-04-21T08:02:38.616Z,16.93
2019-04-21T08:03:35.529Z,17.01
2019-04-21T08:05:35.328Z,16.94
2019-04-21T08:06:33.580Z,17.01
2019-04-21T08:07:41.813Z,16.97
2019-04-21T08:08:33.584Z,17.01
2019-04-21T08:09:32.940Z,17.00
2019-04-21T08:10:33.503Z,17.01
2019-04-21T08:11:28.354Z,17.01
2019-04-21T08:12:35.163Z,17.08
2019-04-21T08:14:08.374Z,17.00
2019-04-21T08:14:36.907Z,17.04
2019-04-21T08:15:39.967Z,17.18
2019-04-21T08:16:42.075Z,17.21
2019-04-21T08:17:36.544Z,17.19
2019-04-21T08:18:33.505Z,17.30
2019-04-21T08:19:31.187Z,17.36
2019-04-21T08:20:28.895Z,17.34
2019-04-21T08:21:37.220Z,17.38
2019-04-21T08:22:38.193Z,17.38
2019-04-21T08:23:31.473Z,17.38
2019-04-21T08:24:38.762Z,17.52
2019-04-21T08:25:41.132Z,17.51
2019-04-21T08:26:35.969Z,17.56
2019-04-21T08:27:35.142Z,17.56
2019-04-21T08:28:33.436Z,17.64
2019-04-21T08:31:38.894Z,17.77
2019-04-21T08:32:46.349Z,17.77
2019-04-21T08:33:41.459Z,17.79
2019-04-21T08:34:33.919Z,17.74
2019-04-21T08:36:01.177Z,17.74
2019-04-21T08:36:55.313Z,17.81
2019-04-21T08:37:31.279Z,17.86
2019-04-21T08:38:38.805Z,17.89
2019-04-21T08:39:37.328Z,17.90
2019-04-21T08:40:51.084Z,17.78
2019-04-21T08:41:31.305Z,17.84
2019-04-21T08:42:30.502Z,17.87
2019-04-21T08:43:42.556Z,17.89
2019-04-21T08:44:40.306Z,17.96
2019-04-21T08:45:35.746Z,18.07
2019-04-21T08:46:32.931Z,18.11
2019-04-21T08:47:36.595Z,18.08
2019-04-21T08:48:37.554Z,18.17
2019-04-21T08:49:39.190Z,18.30
2019-04-21T08:50:34.262Z,18.23
2019-04-21T08:51:33.359Z,18.32
2019-04-21T08:53:36.322Z,18.37
2019-04-21T08:54:32.305Z,18.44
2019-04-21T08:55:35.792Z,18.52
2019-04-21T08:56:36.872Z,18.50
2019-04-21T08:57:41.453Z,18.55
2019-04-21T08:58:34.050Z,18.55
2019-04-21T08:59:36.535Z,18.52
2019-04-21T09:00:36.863Z,18.54
2019-04-21T09:01:39.775Z,18.60
2019-04-21T09:02:34.998Z,18.67
2019-04-21T09:03:28.504Z,18.73
2019-04-21T09:04:28.604Z,18.76
2019-04-21T09:05:31.196Z,18.75
2019-04-21T09:06:51.191Z,18.72
2019-04-21T09:07:39.539Z,18.78
2019-04-21T09:08:34.588Z,18.65
2019-04-21T09:09:35.268Z,18.51
2019-04-21T09:10:33.070Z,18.55
2019-04-21T09:11:33.290Z,18.52
2019-04-21T09:12:30.978Z,18.54
2019-04-21T09:13:34.500Z,18.60
2019-04-21T09:14:31.049Z,18.58
2019-04-21T09:15:33.760Z,18.52
2019-04-21T09:16:31.121Z,18.55
2019-04-21T09:17:25.192Z,18.54
2019-04-21T09:18:26.922Z,18.62
2019-04-21T09:19:47.695Z,18.65
2019-04-21T09:20:36.493Z,18.69
2019-04-21T09:21:31.399Z,18.78
2019-04-21T09:22:30.686Z,18.90
2019-04-21T09:23:36.443Z,18.92
2019-04-21T09:24:31.297Z,19.11
2019-04-21T09:25:38.359Z,19.16
2019-04-21T09:26:29.290Z,19.19
2019-04-21T09:27:26.990Z,19.23
2019-04-21T09:28:27.246Z,19.25
2019-04-21T09:29:22.135Z,19.33
2019-04-21T09:30:12.950Z,19.26
2019-04-21T09:31:12.205Z,19.28
2019-04-21T09:32:18.317Z,19.33
2019-04-21T09:33:13.954Z,19.41
2019-04-21T09:34:21.994Z,19.41
2019-04-21T09:35:14.923Z,19.41
2019-04-21T09:36:15.227Z,19.32
2019-04-21T09:37:26.555Z,19.25
2019-04-21T09:38:23.617Z,19.28
2019-04-21T09:39:17.929Z,19.31
2019-04-21T09:40:14.988Z,19.28
2019-04-21T09:41:16.066Z,19.32
2019-04-21T09:42:13.618Z,19.39
2019-04-21T09:43:13.810Z,19.44
2019-04-21T09:44:17.269Z,19.36
2019-04-21T09:45:13.879Z,19.44
2019-04-21T09:46:11.811Z,19.44
2019-04-21T09:47:12.584Z,19.46
2019-04-21T09:48:16.696Z,19.50
2019-04-21T09:49:15.710Z,19.61
2019-04-21T09:50:13.480Z,19.61
2019-04-21T09:51:11.252Z,19.68
2019-04-21T09:52:17.909Z,19.86
2019-04-21T09:53:22.149Z,19.92
2019-04-21T09:54:20.758Z,19.91
2019-04-21T09:55:17.476Z,20.10
2019-04-21T09:56:16.606Z,20.06
2019-04-21T09:57:24.308Z,20.18
2019-04-21T09:58:23.216Z,20.20
2019-04-21T09:59:20.555Z,20.28
2019-04-21T10:00:18.460Z,20.35
2019-04-21T10:01:20.461Z,20.47
2019-04-21T10:02:18.166Z,20.66
2019-04-21T10:03:15.715Z,21.03
2019-04-21T10:04:12.099Z,21.28
2019-04-21T10:05:12.281Z,21.62
2019-04-21T10:06:11.320Z,21.94
2019-04-21T10:07:23.699Z,22.20
2019-04-21T10:08:12.527Z,22.42
2019-04-21T10:09:14.448Z,22.57
2019-04-21T10:10:12.905Z,22.98
2019-04-21T10:11:11.867Z,23.32
2019-04-21T10:12:11.882Z,23.51
2019-04-21T10:13:10.995Z,23.85
2019-04-21T10:14:11.785Z,24.30
2019-04-21T10:15:10.978Z,24.60
2019-04-21T10:16:10.972Z,25.05
2019-04-21T10:17:11.038Z,25.39
2019-04-21T10:18:10.947Z,25.50
2019-04-21T10:19:11.227Z,25.69
2019-04-21T10:20:11.835Z,25.87
2019-04-21T10:21:10.929Z,26.20
2019-04-21T10:22:10.923Z,26.54
2019-04-21T10:23:11.394Z,26.66
2019-04-21T10:24:10.875Z,27.07
2019-04-21T10:25:10.869Z,27.24
2019-04-21T10:26:10.882Z,27.47
2019-04-21T10:27:12.891Z,27.65
2019-04-21T10:28:11.031Z,27.67
2019-04-21T10:29:18.267Z,27.62
2019-04-21T10:30:12.120Z,27.77
2019-04-21T10:31:11.131Z,27.93
2019-04-21T10:32:11.319Z,28.07
2019-04-21T10:33:10.793Z,27.92
2019-04-21T10:34:11.539Z,28.22
2019-04-21T10:35:10.985Z,28.54
2019-04-21T10:36:11.073Z,28.76
2019-04-21T10:37:11.216Z,28.70
2019-04-21T10:38:19.806Z,28.74
2019-04-21T10:39:11.724Z,28.98
2019-04-21T10:40:11.752Z,29.08
2019-04-21T10:41:11.806Z,29.36
2019-04-21T10:42:11.269Z,29.74
2019-04-21T10:43:12.412Z,30.08
2019-04-21T10:44:11.483Z,30.62
2019-04-21T10:45:10.912Z,30.99
2019-04-21T10:46:10.781Z,31.51
2019-04-21T10:47:10.960Z,31.70
2019-04-21T10:48:10.894Z,31.70
2019-04-21T10:49:10.826Z,32.00
2019-04-21T10:50:10.989Z,32.03
2019-04-21T10:51:10.768Z,32.33
2019-04-21T10:52:10.991Z,32.51
2019-04-21T10:53:11.114Z,32.77
2019-04-21T10:54:11.700Z,32.87
2019-04-21T10:55:30.930Z,33.12
2019-04-21T10:56:19.933Z,33.51
2019-04-21T10:57:12.557Z,34.02
2019-04-21T10:58:10.943Z,34.54
2019-04-21T10:59:10.528Z,35.02
2019-04-21T11:00:12.005Z,35.03
2019-04-21T11:01:10.720Z,35.10
2019-04-21T11:02:10.614Z,35.11
2019-04-21T11:03:10.926Z,34.99
2019-04-21T11:04:20.003Z,34.80
2019-04-21T11:05:12.507Z,34.73
2019-04-21T11:06:10.673Z,34.72
2019-04-21T11:07:14.045Z,35.02
2019-04-21T11:08:21.578Z,35.60
2019-04-21T11:09:11.430Z,36.01
2019-04-21T11:10:11.805Z,36.16
2019-04-21T11:11:10.411Z,36.27
2019-04-21T11:12:10.435Z,36.62
2019-04-21T11:13:10.443Z,36.69
2019-04-21T11:14:10.654Z,36.76
2019-04-21T11:15:11.432Z,36.81
2019-04-21T11:16:11.028Z,37.12
2019-04-21T11:17:10.366Z,37.18
2019-04-21T11:18:10.379Z,37.29
2019-04-21T11:19:11.638Z,37.57
2019-04-21T11:20:10.838Z,37.74
2019-04-21T11:21:11.178Z,37.85
2019-04-21T11:22:10.502Z,37.84
2019-04-21T11:23:10.318Z,37.91
2019-04-21T11:24:10.366Z,38.20
2019-04-21T11:25:11.215Z,38.53
2019-04-21T11:26:11.894Z,38.61
2019-04-21T11:27:10.904Z,38.78
2019-04-21T11:28:11.191Z,39.03
2019-04-21T11:29:10.765Z,39.01
2019-04-21T11:30:11.665Z,39.35
2019-04-21T11:31:11.090Z,39.67
2019-04-21T11:32:10.286Z,39.88
2019-04-21T11:33:11.230Z,40.06
2019-04-21T11:34:11.320Z,40.34
2019-04-21T11:35:10.228Z,40.22
2019-04-21T11:36:11.190Z,39.44
2019-04-21T11:37:10.318Z,39.23
2019-04-21T11:38:16.985Z,39.48
2019-04-21T11:39:21.997Z,39.84
2019-04-21T11:40:14.947Z,39.82
2019-04-21T11:41:11.923Z,39.92
2019-04-21T11:42:10.202Z,39.28
2019-04-21T11:43:11.414Z,39.23
2019-04-21T11:44:10.162Z,39.57
2019-04-21T11:45:10.497Z,39.62
2019-04-21T11:46:10.777Z,39.60
2019-04-21T11:47:10.461Z,39.78
2019-04-21T11:48:10.472Z,40.13
2019-04-21T11:49:10.452Z,40.41
2019-04-21T11:50:10.869Z,40.53
2019-04-21T11:51:11.032Z,40.88
2019-04-21T11:52:11.342Z,40.84
2019-04-21T11:53:10.635Z,40.89
2019-04-21T11:54:10.825Z,40.95
2019-04-21T11:55:11.129Z,41.08
2019-04-21T11:56:10.089Z,41.26
2019-04-21T11:57:15.132Z,41.55
2019-04-21T11:58:11.873Z,41.83
2019-04-21T11:59:10.100Z,42.13
2019-04-21T12:00:11.391Z,42.39
2019-04-21T12:01:10.030Z,42.65
2019-04-21T12:02:10.025Z,42.74
2019-04-21T12:03:12.378Z,42.86
2019-04-21T12:04:10.015Z,43.00
2019-04-21T12:05:10.038Z,42.70
2019-04-21T12:06:11.139Z,42.59
2019-04-21T12:07:11.253Z,42.52
2019-04-21T12:08:19.877Z,42.37
2019-04-21T12:09:11.824Z,42.42
2019-04-21T12:10:11.297Z,42.18
2019-04-21T12:11:09.946Z,42.27
2019-04-21T12:12:09.986Z,42.43
2019-04-21T12:13:10.078Z,42.50
2019-04-21T12:14:10.043Z,42.40
2019-04-21T12:15:12.429Z,42.21
2019-04-21T12:16:10.677Z,42.11
2019-04-21T12:17:10.067Z,42.13
2019-04-21T12:18:10.058Z,41.98
2019-04-21T12:19:09.895Z,41.63
2019-04-21T12:20:10.628Z,41.04
2019-04-21T12:21:09.860Z,40.73
2019-04-21T12:22:19.318Z,40.32
2019-04-21T12:23:12.108Z,40.12
2019-04-21T12:24:11.086Z,39.63
2019-04-21T12:25:11.146Z,39.50
2019-04-21T12:26:09.835Z,39.35
2019-04-21T12:27:09.932Z,39.48
2019-04-21T12:28:10.088Z,39.57
2019-04-21T12:29:10.072Z,39.66
2019-04-21T12:30:09.781Z,39.84
2019-04-21T12:31:09.775Z,39.89
2019-04-21T12:32:09.801Z,40.07
2019-04-21T12:33:09.884Z,40.04
2019-04-21T12:34:09.884Z,39.92
2019-04-21T12:35:10.074Z,39.17
2019-04-21T12:36:09.732Z,38.16
2019-04-21T12:37:10.947Z,37.05
2019-04-21T12:38:10.871Z,35.94
2019-04-21T12:39:10.707Z,34.82
2019-04-21T12:40:10.521Z,34.32
2019-04-21T12:41:10.727Z,34.27
2019-04-21T12:42:09.683Z,34.28
2019-04-21T12:43:10.603Z,34.54
2019-04-21T12:44:10.873Z,34.32
2019-04-21T12:45:09.854Z,34.35
2019-04-21T12:46:09.721Z,34.28
2019-04-21T12:47:10.079Z,34.08
2019-04-21T12:48:10.458Z,33.82
2019-04-21T12:49:09.853Z,33.75
2019-04-21T12:50:10.822Z,33.97
2019-04-21T12:51:10.146Z,34.31
2019-04-21T12:52:09.578Z,34.49
2019-04-21T12:53:12.554Z,34.53
2019-04-21T12:54:09.866Z,34.53
2019-04-21T12:55:09.601Z,34.35
2019-04-21T12:56:09.558Z,34.00
2019-04-21T12:57:09.671Z,33.84
2019-04-21T12:58:09.503Z,34.00
2019-04-21T12:59:09.997Z,34.32
2019-04-21T13:00:10.949Z,34.53
2019-04-21T13:01:09.482Z,34.89
2019-04-21T13:02:09.686Z,35.44
2019-04-21T13:03:10.303Z,35.99
2019-04-21T13:04:10.145Z,36.38
2019-04-21T13:05:09.516Z,36.76
2019-04-21T13:06:09.974Z,37.07
2019-04-21T13:07:09.853Z,37.22
2019-04-21T13:08:09.405Z,37.28
2019-04-21T13:09:13.077Z,37.47
2019-04-21T13:10:10.563Z,37.36
2019-04-21T13:11:10.133Z,37.50
2019-04-21T13:12:09.374Z,37.44
2019-04-21T13:13:10.098Z,37.21
2019-04-21T13:14:09.340Z,36.53
2019-04-21T13:15:10.772Z,35.68
2019-04-21T13:16:09.715Z,34.78
2019-04-21T13:17:09.859Z,33.97
2019-04-21T13:18:10.123Z,33.39
2019-04-21T13:19:09.465Z,33.22
2019-04-21T13:20:09.563Z,33.34
2019-04-21T13:21:09.930Z,33.31
2019-04-21T13:22:09.980Z,33.19
2019-04-21T13:23:10.178Z,32.79
2019-04-21T13:24:09.243Z,32.57
2019-04-21T13:25:09.721Z,32.41
2019-04-21T13:26:09.682Z,32.78
2019-04-21T13:27:10.899Z,33.22
2019-04-21T13:28:10.382Z,33.32
2019-04-21T13:29:10.216Z,33.29
2019-04-21T13:30:10.418Z,33.11
2019-04-21T13:31:09.165Z,32.96
2019-04-21T13:32:10.626Z,32.82
2019-04-21T13:33:09.281Z,32.67
2019-04-21T13:34:10.488Z,32.35
2019-04-21T13:35:10.722Z,31.57
2019-04-21T13:36:09.679Z,30.99
2019-04-21T13:37:09.754Z,30.76
2019-04-21T13:38:19.873Z,30.31
2019-04-21T13:39:42.363Z,30.42
2019-04-21T13:40:29.224Z,30.70
2019-04-21T13:41:21.477Z,30.88
2019-04-21T13:42:17.414Z,31.01
2019-04-21T13:43:10.778Z,31.29
2019-04-21T13:44:09.036Z,32.01
2019-04-21T13:45:10.224Z,33.11
2019-04-21T13:46:10.000Z,34.24
2019-04-21T13:47:10.244Z,35.25
2019-04-21T13:48:10.467Z,36.20
2019-04-21T13:49:09.501Z,37.13
2019-04-21T13:50:09.013Z,37.88
2019-04-21T13:51:09.180Z,38.41
2019-04-21T13:52:09.017Z,38.74
2019-04-21T13:53:09.121Z,39.01
2019-04-21T13:54:09.617Z,39.23
2019-04-21T13:55:09.654Z,39.60
2019-04-21T13:56:09.023Z,39.59
2019-04-21T13:57:10.361Z,39.33
2019-04-21T13:58:10.300Z,39.09
2019-04-21T13:59:08.889Z,38.44
2019-04-21T14:00:09.126Z,37.66
2019-04-21T14:01:09.656Z,36.93
2019-04-21T14:02:09.007Z,36.22
2019-04-21T14:03:10.273Z,35.44
2019-04-21T14:04:09.536Z,34.58
2019-04-21T14:05:11.772Z,33.63
2019-04-21T14:06:08.816Z,32.82
2019-04-21T14:07:10.015Z,32.14
2019-04-21T14:08:09.255Z,31.46
2019-04-21T14:09:09.478Z,30.86
2019-04-21T14:10:10.523Z,30.34
2019-04-21T14:11:09.304Z,29.90
2019-04-21T14:12:09.680Z,29.52
2019-04-21T14:13:08.751Z,29.37
2019-04-21T14:14:10.268Z,29.02
2019-04-21T14:15:08.730Z,28.52
2019-04-21T14:16:09.691Z,28.12
2019-04-21T14:17:09.020Z,27.85
2019-04-21T14:18:08.894Z,27.82
2019-04-21T14:19:09.714Z,27.63
2019-04-21T14:20:09.118Z,27.51
2019-04-21T14:21:09.203Z,27.66